createdAt,value
2022-11-27T00:00:36.998Z,22.4300
2022-11-27T00:01:39.273Z,22.4800
2022-11-27T00:02:41.751Z,22.4200
2022-11-27T00:03:44.061Z,22.4300
2022-11-27T00:04:44.007Z,22.4700
2022-11-27T00:05:46.298Z,22.4700
2022-11-27T00:06:48.535Z,22.4400
2022-11-27T00:07:50.847Z,22.4200
2022-11-27T00:08:50.890Z,22.3800
2022-11-27T00:09:53.162Z,22.3900
2022-11-27T00:10:55.493Z,22.3700
2022-11-27T00:11:57.711Z,22.3400
2022-11-27T00:12:57.852Z,22.3500
2022-11-27T00:14:00.133Z,22.3700
2022-11-27T00:15:02.420Z,22.3300
2022-11-27T00:16:04.911Z,22.3100
2022-11-27T00:17:01.112Z,22.3400
2022-11-27T00:18:02.869Z,22.4000
2022-11-27T00:19:05.085Z,22.4500
2022-11-27T00:20:07.313Z,22.5000
2022-11-27T00:21:07.503Z,22.5500
2022-11-27T00:22:09.749Z,22.5100
2022-11-27T00:23:12.030Z,22.5400
2022-11-27T00:24:14.340Z,22.5600
2022-11-27T00:25:16.659Z,22.5700
2022-11-27T00:26:16.876Z,22.6100
2022-11-27T00:27:19.138Z,22.5900
2022-11-27T00:28:21.450Z,22.5800
2022-11-27T00:29:23.767Z,22.6000
2022-11-27T00:30:26.024Z,22.5600
2022-11-27T00:31:28.521Z,22.5600
2022-11-27T00:32:30.513Z,22.5400
2022-11-27T00:33:32.777Z,22.5100
2022-11-27T00:34:32.882Z,22.4900
2022-11-27T00:35:35.180Z,22.5100
2022-11-27T00:36:37.602Z,22.4800
2022-11-27T00:37:39.787Z,22.4400
2022-11-27T00:38:42.108Z,22.4500
2022-11-27T00:39:44.452Z,22.4500
2022-11-27T00:40:44.623Z,22.4800
2022-11-27T00:41:47.156Z,22.4600
2022-11-27T00:42:49.263Z,22.4300
2022-11-27T00:43:51.595Z,22.3700
2022-11-27T00:44:52.790Z,22.3300
2022-11-27T00:45:55.190Z,22.2400
2022-11-27T00:46:57.554Z,22.2300
2022-11-27T00:47:59.613Z,22.2800
2022-11-27T00:49:01.884Z,22.2900
2022-11-27T00:50:04.179Z,22.2600
2022-11-27T00:51:06.454Z,22.2400
2022-11-27T00:52:06.743Z,22.2200
2022-11-27T00:53:08.881Z,22.2400
2022-11-27T00:54:11.154Z,22.2200
2022-11-27T00:55:13.425Z,22.2100
2022-11-27T00:56:13.524Z,22.1900
2022-11-27T00:57:15.976Z,22.2000
2022-11-27T00:58:18.067Z,22.2100
2022-11-27T00:59:20.320Z,22.1900
2022-11-27T01:00:20.462Z,22.1800
2022-11-27T01:01:22.783Z,22.1900
2022-11-27T01:02:25.110Z,22.2300
2022-11-27T01:03:27.280Z,22.2200
2022-11-27T01:04:27.397Z,22.2400
2022-11-27T01:05:29.681Z,22.2000
2022-11-27T01:06:31.975Z,22.2000
2022-11-27T01:07:34.302Z,22.2000
2022-11-27T01:08:36.405Z,22.1400
2022-11-27T01:09:38.642Z,22.1800
2022-11-27T01:10:40.933Z,22.2000
2022-11-27T01:11:43.257Z,22.1800
2022-11-27T01:12:45.703Z,22.2000
2022-11-27T01:13:47.845Z,22.2100
2022-11-27T01:14:50.158Z,22.2300
2022-11-27T01:15:50.346Z,22.1700
2022-11-27T01:16:52.634Z,22.1500
2022-11-27T01:17:54.971Z,22.1900
2022-11-27T01:18:57.211Z,22.1900
2022-11-27T01:19:59.470Z,22.1600
2022-11-27T01:21:01.744Z,22.1300
2022-11-27T01:22:04.037Z,22.1300
2022-11-27T01:23:04.186Z,22.1000
2022-11-27T01:24:06.429Z,22.1200
2022-11-27T01:25:08.656Z,22.1400
2022-11-27T01:26:10.910Z,22.1600
2022-11-27T01:27:11.051Z,22.1600
2022-11-27T01:28:13.514Z,22.2100
2022-11-27T01:29:15.616Z,22.1900
2022-11-27T01:30:17.899Z,22.2000
2022-11-27T01:31:18.075Z,22.1800
2022-11-27T01:32:20.329Z,22.1600
2022-11-27T01:33:22.653Z,22.1900
2022-11-27T01:34:24.911Z,22.1900
2022-11-27T01:35:25.018Z,22.1300
2022-11-27T01:36:27.362Z,22.1000
2022-11-27T01:37:29.674Z,22.1200
2022-11-27T01:38:32.110Z,22.1200
2022-11-27T01:39:34.307Z,22.1400
2022-11-27T01:40:36.636Z,22.1500
2022-11-27T01:41:38.876Z,22.1200
2022-11-27T01:42:41.175Z,22.1100
2022-11-27T01:43:43.504Z,22.0600
2022-11-27T01:44:45.752Z,22.0300
2022-11-27T01:45:45.883Z,22.0100
2022-11-27T01:46:48.245Z,22.0300
2022-11-27T01:47:50.460Z,22.0700
2022-11-27T01:48:52.789Z,22.0600
2022-11-27T01:49:52.894Z,22.0100
2022-11-27T01:50:55.164Z,22.0400
2022-11-27T01:51:57.431Z,22.0300
2022-11-27T01:52:59.698Z,22.0200
2022-11-27T01:53:59.853Z,22.0300
2022-11-27T01:55:02.076Z,22.0100
2022-11-27T01:56:04.373Z,22.0200
2022-11-27T01:57:06.683Z,22.0400
2022-11-27T01:58:08.981Z,22.0100
2022-11-27T01:59:11.344Z,22.0100
2022-11-27T02:00:13.591Z,22.0200
2022-11-27T02:01:13.768Z,22.0800
2022-11-27T02:02:16.298Z,22.0900
2022-11-27T02:03:18.380Z,22.0500
2022-11-27T02:04:20.613Z,22.0500
2022-11-27T02:05:20.724Z,22.0600
2022-11-27T02:06:22.956Z,22.0300
2022-11-27T02:07:25.337Z,21.9500
2022-11-27T02:08:27.603Z,21.9500
2022-11-27T02:09:29.946Z,21.9800
2022-11-27T02:10:32.210Z,22.0000
2022-11-27T02:11:34.526Z,22.0400
2022-11-27T02:12:36.833Z,22.0600
2022-11-27T02:13:39.151Z,22.0200
2022-11-27T02:14:46.584Z,22.0400
2022-11-27T02:15:43.784Z,22.0200
2022-11-27T02:16:46.037Z,21.9600
2022-11-27T02:17:48.344Z,21.9500
2022-11-27T02:18:48.468Z,21.9900
2022-11-27T02:19:50.806Z,21.9800
2022-11-27T02:20:53.037Z,21.9800
2022-11-27T02:21:55.309Z,21.9700
2022-11-27T02:22:55.459Z,21.9800
2022-11-27T02:23:57.758Z,22.0000
2022-11-27T02:25:00.200Z,22.0100
2022-11-27T02:26:02.345Z,21.9900
2022-11-27T02:27:04.603Z,22.0100
2022-11-27T02:28:06.891Z,21.9900
2022-11-27T02:29:09.190Z,22.0100
2022-11-27T02:30:09.405Z,21.9700
2022-11-27T02:31:11.722Z,21.9300
2022-11-27T02:32:13.964Z,21.9500
2022-11-27T02:33:16.248Z,21.9500
2022-11-27T02:34:18.517Z,21.9600
2022-11-27T02:35:20.951Z,21.9500
2022-11-27T02:36:23.118Z,21.9200
2022-11-27T02:37:23.263Z,21.9400
2022-11-27T02:38:25.520Z,21.9300
2022-11-27T02:39:27.769Z,21.8800
2022-11-27T02:40:30.125Z,21.9100
2022-11-27T02:41:30.260Z,21.8900
2022-11-27T02:42:32.742Z,21.9100
2022-11-27T02:43:34.998Z,21.8900
2022-11-27T02:44:35.183Z,21.8700
2022-11-27T02:45:37.626Z,21.8700
2022-11-27T02:46:39.822Z,21.8800
2022-11-27T02:47:42.150Z,21.8700
2022-11-27T02:48:44.506Z,21.8500
2022-11-27T02:49:46.794Z,21.8800
2022-11-27T02:50:49.148Z,21.8800
2022-11-27T02:51:51.404Z,21.9100
2022-11-27T02:52:53.743Z,21.9000
2022-11-27T02:53:56.053Z,21.8500
2022-11-27T02:54:58.333Z,21.8800
2022-11-27T02:56:00.649Z,21.8800
2022-11-27T02:57:02.924Z,21.9200
2022-11-27T02:58:03.097Z,21.8700
2022-11-27T02:59:05.192Z,21.8500
2022-11-27T03:00:07.457Z,21.8500
2022-11-27T03:01:09.783Z,21.8700
2022-11-27T03:02:12.119Z,21.8700
2022-11-27T03:03:14.325Z,21.9100
2022-11-27T03:04:16.494Z,21.8800
2022-11-27T03:05:18.761Z,21.8600
2022-11-27T03:06:18.994Z,21.8700
2022-11-27T03:07:21.195Z,21.8800
2022-11-27T03:08:23.434Z,21.8600
2022-11-27T03:09:25.730Z,21.9100
2022-11-27T03:10:25.815Z,21.8900
2022-11-27T03:11:28.131Z,21.8600
2022-11-27T03:12:30.422Z,21.8900
2022-11-27T03:13:32.849Z,21.8800
2022-11-27T03:14:35.027Z,21.8500
2022-11-27T03:15:37.377Z,21.8100
2022-11-27T03:16:39.639Z,21.8200
2022-11-27T03:17:39.784Z,21.8200
2022-11-27T03:18:42.076Z,21.8500
2022-11-27T03:19:44.387Z,21.8000
2022-11-27T03:20:46.668Z,21.8000
2022-11-27T03:21:49.090Z,21.8400
2022-11-27T03:22:51.269Z,21.8600
2022-11-27T03:23:53.579Z,21.8400
2022-11-27T03:24:53.717Z,21.8200
2022-11-27T03:25:56.001Z,21.7700
2022-11-27T03:26:58.313Z,21.8100
2022-11-27T03:28:00.577Z,21.7800
2022-11-27T03:29:02.984Z,21.7600
2022-11-27T03:30:05.164Z,21.7900
2022-11-27T03:31:07.481Z,21.8000
2022-11-27T03:32:07.643Z,21.7900
2022-11-27T03:33:09.704Z,21.7700
2022-11-27T03:34:11.901Z,21.8200
2022-11-27T03:35:14.117Z,21.8200
2022-11-27T03:36:16.310Z,21.8100
2022-11-27T03:37:18.567Z,21.8300
2022-11-27T03:38:20.765Z,21.8400
2022-11-27T03:39:22.999Z,21.8700
2022-11-27T03:40:25.336Z,21.8600
2022-11-27T03:41:25.510Z,21.8500
2022-11-27T03:42:28.011Z,21.8400
2022-11-27T03:43:30.195Z,21.8100
2022-11-27T03:44:30.518Z,21.7800
2022-11-27T03:45:32.750Z,21.7500
2022-11-27T03:46:35.187Z,21.7300
2022-11-27T03:47:35.435Z,21.7600
2022-11-27T03:48:37.660Z,21.7500
2022-11-27T03:49:39.992Z,21.7700
2022-11-27T03:50:42.339Z,21.7700
2022-11-27T03:51:44.676Z,21.7900
2022-11-27T03:52:47.051Z,21.8200
2022-11-27T03:53:49.292Z,21.8300
2022-11-27T03:54:51.613Z,21.7900
2022-11-27T03:55:54.073Z,21.8100
2022-11-27T03:56:56.288Z,21.8100
2022-11-27T03:57:58.733Z,21.7700
2022-11-27T03:59:00.864Z,21.8000
2022-11-27T04:00:03.236Z,21.8000
2022-11-27T04:01:03.240Z,21.7900
2022-11-27T04:02:05.616Z,21.7400
2022-11-27T04:03:07.900Z,21.7600
2022-11-27T04:04:10.158Z,21.7600
2022-11-27T04:05:10.231Z,21.7400
2022-11-27T04:06:12.535Z,21.7300
2022-11-27T04:07:14.866Z,21.6900
2022-11-27T04:08:17.265Z,21.7100
2022-11-27T04:09:19.437Z,21.6700
2022-11-27T04:10:21.755Z,21.6700
2022-11-27T04:11:24.075Z,21.6400
2022-11-27T04:12:26.400Z,21.6300
2022-11-27T04:13:28.837Z,21.6600
2022-11-27T04:14:31.061Z,21.6300
2022-11-27T04:15:33.514Z,21.6500
2022-11-27T04:16:35.755Z,21.6700
2022-11-27T04:17:38.008Z,21.6700
2022-11-27T04:18:40.488Z,21.6400
2022-11-27T04:19:42.699Z,21.6600
2022-11-27T04:20:45.010Z,21.6800
2022-11-27T04:21:47.322Z,21.6900
2022-11-27T04:22:49.640Z,21.7000
2022-11-27T04:23:52.032Z,21.7100
2022-11-27T04:24:54.371Z,21.7100
2022-11-27T04:25:56.718Z,21.6600
2022-11-27T04:26:56.911Z,21.6600
2022-11-27T04:27:59.286Z,21.6400
2022-11-27T04:29:01.647Z,21.6300
2022-11-27T04:30:01.815Z,21.6400
2022-11-27T04:31:04.329Z,21.6400
2022-11-27T04:32:06.511Z,21.6800
2022-11-27T04:33:08.819Z,21.6300
2022-11-27T04:34:11.273Z,21.6200
2022-11-27T04:35:13.473Z,21.6100
2022-11-27T04:36:15.820Z,21.6100
2022-11-27T04:37:18.151Z,21.6600
2022-11-27T04:38:20.494Z,21.6500
2022-11-27T04:39:20.707Z,21.6500
2022-11-27T04:40:23.006Z,21.5900
2022-11-27T04:41:25.327Z,21.6200
2022-11-27T04:42:27.655Z,21.6000
2022-11-27T04:43:29.997Z,21.6100
2022-11-27T04:44:32.351Z,21.5800
2022-11-27T04:45:34.661Z,21.5800
2022-11-27T04:46:37.190Z,21.6000
2022-11-27T04:47:39.379Z,21.6000
2022-11-27T04:48:39.594Z,21.6500
2022-11-27T04:49:41.954Z,21.6600
2022-11-27T04:50:44.222Z,21.6300
2022-11-27T04:51:46.536Z,21.6400
2022-11-27T04:52:48.877Z,21.5900
2022-11-27T04:53:51.211Z,21.5900
2022-11-27T04:54:59.647Z,21.5900
2022-11-27T04:55:55.919Z,21.5800
2022-11-27T04:56:58.262Z,21.5500
2022-11-27T04:57:58.458Z,21.5700
2022-11-27T04:59:00.833Z,21.5700
2022-11-27T05:00:03.177Z,21.5900
2022-11-27T05:01:05.645Z,21.5600
2022-11-27T05:02:07.961Z,21.5900
2022-11-27T05:03:10.257Z,21.5500
2022-11-27T05:04:10.373Z,21.5100
2022-11-27T05:05:12.858Z,21.5900
2022-11-27T05:06:15.009Z,21.5300
2022-11-27T05:07:17.357Z,21.5700
2022-11-27T05:08:19.677Z,21.5700
2022-11-27T05:09:22.035Z,21.5300
2022-11-27T05:10:24.400Z,21.5500
2022-11-27T05:11:26.710Z,21.5800
2022-11-27T05:12:29.022Z,21.5700
2022-11-27T05:13:29.239Z,21.6000
2022-11-27T05:14:31.576Z,21.6100
2022-11-27T05:15:33.908Z,21.6100
2022-11-27T05:16:36.205Z,21.6500
2022-11-27T05:17:42.272Z,21.5900
2022-11-27T05:18:38.724Z,21.5200
2022-11-27T05:19:40.920Z,21.5300
2022-11-27T05:20:43.260Z,21.5700
2022-11-27T05:21:45.536Z,21.5500
2022-11-27T05:22:47.789Z,21.5500
2022-11-27T05:23:50.102Z,21.5600
2022-11-27T05:24:50.214Z,21.5400
2022-11-27T05:25:52.504Z,21.5000
2022-11-27T05:26:54.767Z,21.4900
2022-11-27T05:27:57.095Z,21.5000
2022-11-27T05:28:59.402Z,21.5400
2022-11-27T05:30:01.700Z,21.5700
2022-11-27T05:31:04.166Z,21.5700
2022-11-27T05:32:04.197Z,21.5400
2022-11-27T05:33:06.533Z,21.5800
2022-11-27T05:34:09.004Z,21.5900
2022-11-27T05:35:09.067Z,21.5700
2022-11-27T05:36:11.440Z,21.5700
2022-11-27T05:37:17.996Z,21.5400
2022-11-27T05:38:16.054Z,21.5200
2022-11-27T05:39:18.371Z,21.5100
2022-11-27T05:40:20.719Z,21.5600
2022-11-27T05:41:23.044Z,21.5700
2022-11-27T05:42:25.301Z,21.5800
2022-11-27T05:43:27.571Z,21.5500
2022-11-27T05:44:29.849Z,21.5800
2022-11-27T05:45:29.976Z,21.6000
2022-11-27T05:46:32.316Z,21.5800
2022-11-27T05:47:34.527Z,21.5700
2022-11-27T05:48:36.774Z,21.5500
2022-11-27T05:49:37.039Z,21.5700
2022-11-27T05:50:39.211Z,21.5900
2022-11-27T05:53:05.373Z,21.7400
2022-11-27T05:54:07.521Z,21.8100
2022-11-27T05:55:09.764Z,21.8400
2022-11-27T05:56:12.034Z,21.8200
2022-11-27T05:57:14.308Z,21.8300
2022-11-27T05:58:16.722Z,21.8500
2022-11-27T05:59:18.871Z,21.8800
2022-11-27T06:00:19.007Z,21.8500
2022-11-27T06:01:21.304Z,21.8000
2022-11-27T06:02:28.982Z,21.8100
2022-11-27T06:03:25.981Z,21.7600
2022-11-27T06:04:28.175Z,21.7500
2022-11-27T06:05:30.616Z,21.8200
2022-11-27T06:06:30.640Z,21.8500
2022-11-27T06:07:33.012Z,21.8600
2022-11-27T06:08:35.296Z,21.9300
2022-11-27T06:09:37.565Z,21.9100
2022-11-27T06:10:39.875Z,21.9100
2022-11-27T06:11:42.196Z,21.9300
2022-11-27T06:12:42.452Z,21.9100
2022-11-27T06:13:44.706Z,21.9300
2022-11-27T06:14:46.942Z,21.9500
2022-11-27T06:15:49.256Z,21.9000
2022-11-27T06:16:51.596Z,21.9200
2022-11-27T06:17:53.836Z,21.9300
2022-11-27T06:18:56.176Z,21.9400
2022-11-27T06:19:56.260Z,21.9000
2022-11-27T06:20:58.621Z,21.8900
2022-11-27T06:22:00.768Z,21.9400
2022-11-27T06:23:03.017Z,21.9700
2022-11-27T06:24:05.307Z,21.9800
2022-11-27T06:25:07.526Z,22.0000
2022-11-27T06:26:09.797Z,21.9900
2022-11-27T06:27:12.085Z,21.9900
2022-11-27T06:28:12.184Z,21.9500
2022-11-27T06:29:14.469Z,21.9100
2022-11-27T06:30:16.718Z,21.9400
2022-11-27T06:31:19.053Z,21.9600
2022-11-27T06:32:21.250Z,21.9300
2022-11-27T06:33:23.473Z,21.9100
2022-11-27T06:34:25.798Z,21.8900
2022-11-27T06:35:28.027Z,21.9100
2022-11-27T06:36:28.282Z,21.9000
2022-11-27T06:37:30.432Z,21.8700
2022-11-27T06:38:32.716Z,21.9200
2022-11-27T06:39:35.040Z,21.9200
2022-11-27T06:40:37.278Z,21.9100
2022-11-27T06:41:39.562Z,21.9500
2022-11-27T06:42:41.837Z,21.9700
2022-11-27T06:43:51.609Z,21.9600
2022-11-27T06:44:53.894Z,21.8300
2022-11-27T06:45:54.166Z,21.7300
2022-11-27T06:46:56.335Z,21.7600
2022-11-27T06:47:58.607Z,21.7500
2022-11-27T06:49:00.891Z,21.7000
2022-11-27T06:50:01.026Z,21.7100
2022-11-27T06:51:03.251Z,21.7400
2022-11-27T06:52:05.676Z,21.6600
2022-11-27T06:53:07.818Z,21.6500
2022-11-27T06:54:07.913Z,21.6600
2022-11-27T06:55:10.239Z,21.7000
2022-11-27T06:56:12.467Z,21.7400
2022-11-27T06:57:14.755Z,21.7300
2022-11-27T06:58:14.882Z,21.7400
2022-11-27T06:59:17.127Z,21.7300
2022-11-27T07:00:20.037Z,21.7300
2022-11-27T07:01:21.788Z,21.7100
2022-11-27T07:02:21.889Z,21.7500
2022-11-27T07:03:24.147Z,21.7900
2022-11-27T07:04:26.373Z,21.8400
2022-11-27T07:05:28.703Z,21.8400
2022-11-27T07:06:28.796Z,21.8100
2022-11-27T07:07:31.272Z,21.7100
2022-11-27T07:08:33.305Z,21.7200
2022-11-27T07:09:35.593Z,21.7900
2022-11-27T07:10:35.750Z,21.7800
2022-11-27T07:11:38.019Z,21.7000
2022-11-27T07:12:40.290Z,21.6700
2022-11-27T07:13:42.579Z,21.6800
2022-11-27T07:14:42.838Z,21.7600
2022-11-27T07:15:45.026Z,21.7500
2022-11-27T07:16:47.278Z,21.7600
2022-11-27T07:17:49.537Z,21.6800
2022-11-27T07:18:49.687Z,21.7100
2022-11-27T07:19:51.947Z,21.7800
2022-11-27T07:20:56.620Z,21.7900
2022-11-27T07:21:56.518Z,21.8100
2022-11-27T07:22:56.765Z,21.8100
2022-11-27T07:23:58.931Z,21.8700
2022-11-27T07:25:01.226Z,21.8900
2022-11-27T07:26:03.536Z,21.8100
2022-11-27T07:27:03.596Z,21.7600
2022-11-27T07:28:05.852Z,21.7100
2022-11-27T07:29:08.159Z,21.6700
2022-11-27T07:30:10.492Z,21.7200
2022-11-27T07:31:12.962Z,21.6600
2022-11-27T07:32:15.149Z,21.6400
2022-11-27T07:33:17.484Z,21.7100
2022-11-27T07:34:21.722Z,21.7300
2022-11-27T07:35:22.139Z,21.8000
2022-11-27T07:36:24.498Z,21.7800
2022-11-27T07:37:26.761Z,21.7800
2022-11-27T07:38:29.181Z,21.8400
2022-11-27T07:40:00.329Z,21.8100
2022-11-27T07:40:33.680Z,21.7500
2022-11-27T07:41:36.049Z,21.7200
2022-11-27T07:42:39.180Z,21.8100
2022-11-27T07:43:38.306Z,21.8400
2022-11-27T07:44:41.006Z,21.9000
2022-11-27T07:45:42.893Z,21.8500
2022-11-27T07:46:45.152Z,21.8800
2022-11-27T07:47:45.253Z,21.9000
2022-11-27T07:48:47.560Z,21.8400
2022-11-27T07:49:49.871Z,21.8100
2022-11-27T07:50:52.172Z,21.8500
2022-11-27T07:51:52.371Z,21.9200
2022-11-27T07:52:54.636Z,21.9400
2022-11-27T07:53:57.077Z,21.9700
2022-11-27T07:54:59.186Z,21.9800
2022-11-27T07:56:01.457Z,21.9300
2022-11-27T07:57:03.822Z,21.9400
2022-11-27T07:58:06.029Z,21.9500
2022-11-27T07:59:06.145Z,21.9000
2022-11-27T08:00:08.475Z,21.9000
2022-11-27T08:01:10.920Z,21.8500
2022-11-27T08:02:13.138Z,21.9200
2022-11-27T08:03:15.424Z,21.9600
2022-11-27T08:04:17.773Z,21.9200
2022-11-27T08:05:20.123Z,21.9600
2022-11-27T08:06:20.206Z,22.0000
2022-11-27T08:07:22.643Z,22.0000
2022-11-27T08:08:24.885Z,21.9600
2022-11-27T08:09:25.221Z,22.0300
2022-11-27T08:10:27.533Z,22.0400
2022-11-27T08:11:29.796Z,22.1200
2022-11-27T08:12:29.982Z,22.0900
2022-11-27T08:13:32.269Z,21.9900
2022-11-27T08:14:34.579Z,21.9900
2022-11-27T08:15:36.870Z,22.0500
2022-11-27T08:16:37.095Z,22.0300
2022-11-27T08:17:39.353Z,22.0000
2022-11-27T08:18:41.592Z,21.9700
2022-11-27T08:19:43.842Z,21.9600
2022-11-27T08:20:46.132Z,22.0100
2022-11-27T08:21:48.418Z,21.9900
2022-11-27T08:22:50.861Z,22.0100
2022-11-27T08:23:50.862Z,22.0400
2022-11-27T08:24:53.234Z,22.0800
2022-11-27T08:25:55.372Z,22.1400
2022-11-27T08:26:57.704Z,22.1600
2022-11-27T08:27:57.895Z,22.2300
2022-11-27T08:29:00.169Z,22.1700
2022-11-27T08:30:02.458Z,22.1900
2022-11-27T08:31:04.785Z,22.2000
2022-11-27T08:32:07.174Z,22.2300
2022-11-27T08:33:09.399Z,22.2100
2022-11-27T08:34:11.651Z,22.1900
2022-11-27T08:35:11.773Z,22.1900
2022-11-27T08:36:18.146Z,22.1200
2022-11-27T08:37:16.314Z,22.0800
2022-11-27T08:38:18.676Z,22.0200
2022-11-27T08:39:20.966Z,22.0500
2022-11-27T08:40:23.336Z,22.0200
2022-11-27T08:41:25.523Z,22.0200
2022-11-27T08:42:25.691Z,21.9900
2022-11-27T08:44:09.451Z,22.1400
2022-11-27T08:45:08.966Z,22.2200
2022-11-27T08:46:11.270Z,22.2200
2022-11-27T08:47:13.504Z,22.2500
2022-11-27T08:48:13.626Z,22.1800
2022-11-27T08:49:16.047Z,22.2000
2022-11-27T08:50:18.249Z,22.1400
2022-11-27T08:51:20.549Z,22.1900
2022-11-27T08:52:22.886Z,22.2300
2022-11-27T08:53:25.211Z,22.1500
2022-11-27T08:54:25.532Z,22.1500
2022-11-27T08:55:27.907Z,22.2100
2022-11-27T08:56:30.008Z,22.2100
2022-11-27T08:57:32.255Z,22.2100
2022-11-27T08:58:34.513Z,22.2200
2022-11-27T08:59:36.910Z,22.2500
2022-11-27T09:00:39.081Z,22.2700
2022-11-27T09:01:39.174Z,22.3300
2022-11-27T09:02:41.430Z,22.2900
2022-11-27T09:03:43.757Z,22.3100
2022-11-27T09:04:45.994Z,22.3500
2022-11-27T09:05:48.214Z,22.3500
2022-11-27T09:06:52.934Z,22.3500
2022-11-27T09:07:52.711Z,22.3800
2022-11-27T09:08:54.898Z,22.4400
2022-11-27T09:09:57.230Z,22.4300
2022-11-27T09:10:59.485Z,22.4200
2022-11-27T09:11:59.470Z,22.3800
2022-11-27T09:13:01.748Z,22.4200
2022-11-27T09:14:04.048Z,22.4200
2022-11-27T09:15:06.403Z,22.4600
2022-11-27T09:16:08.732Z,22.4400
2022-11-27T09:17:11.048Z,22.4800
2022-11-27T09:18:11.195Z,22.4600
2022-11-27T09:19:13.428Z,22.4900
2022-11-27T09:20:15.852Z,22.4500
2022-11-27T09:21:17.966Z,22.3900
2022-11-27T09:22:20.174Z,22.4600
2022-11-27T09:23:22.386Z,22.4600
2022-11-27T09:24:24.645Z,22.4600
2022-11-27T09:25:26.951Z,22.4600
2022-11-27T09:26:29.264Z,22.5200
2022-11-27T09:27:29.285Z,22.4700
2022-11-27T09:28:31.983Z,22.4700
2022-11-27T09:29:33.852Z,22.4700
2022-11-27T09:30:36.176Z,22.4800
2022-11-27T09:31:38.603Z,22.5300
2022-11-27T09:32:40.814Z,22.5400
2022-11-27T09:33:43.167Z,22.5500
2022-11-27T09:34:43.595Z,22.5800
2022-11-27T09:35:45.832Z,22.6300
2022-11-27T09:36:48.023Z,22.6600
2022-11-27T09:37:50.344Z,22.6100
2022-11-27T09:38:52.623Z,22.5500
2022-11-27T09:39:52.795Z,22.5300
2022-11-27T09:40:59.188Z,22.5600
2022-11-27T09:41:57.533Z,22.5900
2022-11-27T09:42:59.717Z,22.6000
2022-11-27T09:44:02.031Z,22.5600
2022-11-27T09:45:04.349Z,22.5900
2022-11-27T09:46:04.603Z,22.5800
2022-11-27T09:47:06.840Z,22.6100
2022-11-27T09:48:09.158Z,22.6700
2022-11-27T09:49:11.435Z,22.6600
2022-11-27T09:51:18.338Z,22.6400
2022-11-27T09:52:20.404Z,22.7000
2022-11-27T09:53:22.605Z,22.6200
2022-11-27T09:54:24.836Z,22.5800
2022-11-27T09:55:27.065Z,22.6000
2022-11-27T09:56:29.324Z,22.5900
2022-11-27T09:57:31.671Z,22.6900
2022-11-27T09:58:33.857Z,22.7600
2022-11-27T09:59:36.119Z,22.7500
2022-11-27T10:00:36.250Z,22.7700
2022-11-27T10:01:47.480Z,22.7900
2022-11-27T10:02:40.988Z,22.7200
2022-11-27T10:03:43.109Z,22.7800
2022-11-27T10:05:12.483Z,22.7900
2022-11-27T10:05:47.577Z,22.7900
2022-11-27T10:06:49.820Z,22.7900
2022-11-27T10:07:52.139Z,22.8100
2022-11-27T10:08:52.162Z,22.8300
2022-11-27T10:09:54.420Z,22.8600
2022-11-27T10:10:56.702Z,22.8400
2022-11-27T10:11:59.012Z,22.8800
2022-11-27T10:13:01.348Z,22.9100
2022-11-27T10:14:03.482Z,22.9300
2022-11-27T10:15:05.741Z,22.9500
2022-11-27T10:16:08.052Z,22.9500
2022-11-27T10:17:10.320Z,22.9300
2022-11-27T10:18:10.293Z,22.9800
2022-11-27T10:19:12.495Z,22.9800
2022-11-27T10:20:14.667Z,22.8900
2022-11-27T10:21:16.906Z,22.8500
2022-11-27T10:22:21.082Z,22.8900
2022-11-27T10:23:21.491Z,22.9100
2022-11-27T10:24:23.707Z,22.8800
2022-11-27T10:25:25.942Z,22.8800
2022-11-27T10:26:28.177Z,22.9900
2022-11-27T10:27:30.554Z,23.0100
2022-11-27T10:28:30.622Z,22.9900
2022-11-27T10:29:32.734Z,23.0100
2022-11-27T10:30:34.994Z,23.0200
2022-11-27T10:31:37.372Z,23.0400
2022-11-27T10:32:56.313Z,22.8900
2022-11-27T10:33:41.859Z,22.7700
2022-11-27T10:34:44.171Z,22.8100
2022-11-27T10:35:46.447Z,22.8700
2022-11-27T10:36:46.553Z,22.8500
2022-11-27T10:37:48.868Z,22.8600
2022-11-27T10:38:51.112Z,22.8700
2022-11-27T10:39:53.412Z,22.9200
2022-11-27T10:40:55.689Z,22.9700
2022-11-27T10:41:57.949Z,22.9600
2022-11-27T10:43:00.347Z,23.0000
2022-11-27T10:44:02.602Z,22.9400
2022-11-27T10:45:02.623Z,22.9100
2022-11-27T10:46:04.974Z,22.9000
2022-11-27T10:47:07.185Z,22.9200
2022-11-27T10:48:09.501Z,22.9500
2022-11-27T10:49:11.734Z,22.9200
2022-11-27T10:50:13.989Z,22.8800
2022-11-27T10:51:16.209Z,22.9300
2022-11-27T10:52:18.464Z,22.9500
2022-11-27T10:53:20.708Z,23.0000
2022-11-27T10:54:20.747Z,23.0200
2022-11-27T10:55:23.012Z,22.8700
2022-11-27T10:56:25.323Z,22.7200
2022-11-27T10:57:27.603Z,22.7600
2022-11-27T10:58:30.010Z,22.8400
2022-11-27T10:59:37.744Z,22.8500
2022-11-27T11:00:34.429Z,22.8600
2022-11-27T11:01:36.638Z,22.8400
2022-11-27T11:02:39.068Z,22.9100
2022-11-27T11:03:38.917Z,22.9300
2022-11-27T11:04:41.138Z,22.9400
2022-11-27T11:06:12.211Z,22.9900
2022-11-27T11:06:45.656Z,22.9800
2022-11-27T11:07:48.037Z,22.9500
2022-11-27T11:08:50.313Z,23.0200
2022-11-27T11:09:52.585Z,23.0400
2022-11-27T11:10:52.757Z,23.0600
2022-11-27T11:11:55.028Z,23.1200
2022-11-27T11:12:57.324Z,23.1700
2022-11-27T11:13:59.669Z,23.2000
2022-11-27T11:15:01.930Z,23.2100
2022-11-27T11:16:04.438Z,23.2000
2022-11-27T11:17:06.668Z,23.1700
2022-11-27T11:18:06.718Z,23.1200
2022-11-27T11:19:09.078Z,23.1500
2022-11-27T11:20:11.351Z,23.1100
2022-11-27T11:21:13.668Z,23.1200
2022-11-27T11:22:15.971Z,23.1600
2022-11-27T11:23:18.275Z,23.1400
2022-11-27T11:24:18.444Z,23.1300
2022-11-27T11:25:20.718Z,23.1700
2022-11-27T11:26:22.980Z,23.1700
2022-11-27T11:27:25.234Z,23.1900
2022-11-27T11:28:27.459Z,23.1900
2022-11-27T11:29:29.756Z,23.1500
2022-11-27T11:30:32.027Z,23.1600
2022-11-27T11:31:32.318Z,23.1800
2022-11-27T11:32:34.346Z,23.1600
2022-11-27T11:33:36.594Z,23.1700
2022-11-27T11:34:39.298Z,23.1900
2022-11-27T11:35:41.119Z,23.2100
2022-11-27T11:36:43.319Z,23.2500
2022-11-27T11:37:45.574Z,23.2500
2022-11-27T11:38:47.822Z,23.2000
2022-11-27T11:39:50.103Z,23.2100
2022-11-27T11:40:52.270Z,23.2500
2022-11-27T11:41:54.501Z,23.2900
2022-11-27T11:42:54.584Z,23.2800
2022-11-27T11:43:56.768Z,23.2500
2022-11-27T11:44:59.112Z,23.2500
2022-11-27T11:46:01.283Z,23.2500
2022-11-27T11:47:03.524Z,23.2300
2022-11-27T11:48:05.669Z,23.2100
2022-11-27T11:49:07.916Z,23.2200
2022-11-27T11:50:10.194Z,23.2300
2022-11-27T11:51:12.410Z,23.2500
2022-11-27T11:52:14.654Z,23.2800
2022-11-27T11:53:16.897Z,23.2900
2022-11-27T11:54:17.025Z,23.2800
2022-11-27T11:55:19.426Z,23.2500
2022-11-27T11:56:21.510Z,23.2200
2022-11-27T11:58:56.197Z,23.2600
2022-11-27T11:59:56.279Z,23.2600
2022-11-27T12:01:25.370Z,23.2600
2022-11-27T12:02:00.914Z,23.2400
2022-11-27T12:03:03.236Z,23.1900
2022-11-27T12:04:05.403Z,23.2000
2022-11-27T12:05:07.588Z,23.2300
2022-11-27T12:06:09.945Z,23.2500
2022-11-27T12:07:09.913Z,23.2400
2022-11-27T12:08:12.286Z,23.2900
2022-11-27T12:09:12.290Z,23.2900
2022-11-27T12:10:14.531Z,23.2500
2022-11-27T12:11:16.925Z,23.2300
2022-11-27T12:12:19.027Z,23.2200
2022-11-27T12:13:21.266Z,23.2600
2022-11-27T12:14:23.476Z,23.3200
2022-11-27T12:15:25.698Z,23.3400
2022-11-27T12:16:28.054Z,23.3100
2022-11-27T12:17:30.253Z,23.3600
2022-11-27T12:18:32.644Z,23.3000
2022-11-27T12:19:32.659Z,23.2700
2022-11-27T12:20:34.908Z,23.3100
2022-11-27T12:21:37.226Z,23.3200
2022-11-27T12:22:39.408Z,23.2700
2022-11-27T12:23:41.555Z,23.2000
2022-11-27T12:24:43.724Z,23.1700
2022-11-27T12:25:45.908Z,23.1300
2022-11-27T12:26:48.268Z,23.1300
2022-11-27T12:27:50.409Z,23.0800
2022-11-27T12:28:58.809Z,23.2000
2022-11-27T12:29:52.799Z,23.2500
2022-11-27T12:30:55.069Z,23.3200
2022-11-27T12:31:57.420Z,23.3000
2022-11-27T12:32:59.586Z,23.3200
2022-11-27T12:34:02.039Z,23.3500